Main page
METAR-TAF:

METAR-TAF

Airports :

Mangalore, India

Mangaluru Airport

latitude: 12-55N, longitude: 074-53E, elevation: 102 m

Current weather observation

The report was made 30 minutes ago, at 03:30 UTC
Wind 6 kt from the East
Temperature 26°C
Humidity 74%
Pressure 1013 hPa
Visibility: 5000 m
mist

METAR: VOML 240330Z 09006KT 5000 BR NSC 26/21 Q1013 NOSIG

Time: 09:30 (04:00 UTC)

Forecast

The report was made 2 hours and 0 minutes ago, at 02:00 UTC
Forecast valid from 24 at 03 UTC to 24 at 12 UTC
Wind 5 kt from the East
Visibility: 6000 m
Few clouds at a height of 1500 ft
Becoming
from 24 at 06 UTC to 24 at 07 UTC
Wind 5 kt from the West

TAF: VOML 240200Z 2403/2412 09005KT 6000 FEW015 BECMG 2406/2407 27005KT

Weather observations and forecasts of more than 4000 airports (METAR and TAF reports).

The available stations are represented by yellow and red dots on the map.

Hover mouse over dot to see the name of the station.

Then click to see weather observations and forecasts.

To change the map : click on the green buttons with a black cross to zoom in, on the green button with a dash to zoom out, or on the green arrows for adjacent maps.


METAR-TAF: